createdAt,value
2023-05-05T00:01:08.247Z,101445.03
2023-05-05T00:03:36.226Z,101433.06
2023-05-05T00:06:03.207Z,101447.06
2023-05-05T00:08:30.068Z,101438.53
2023-05-05T00:10:57.633Z,101436.09
2023-05-05T00:13:24.425Z,101439.63
2023-05-05T00:15:53.342Z,101439.41
2023-05-05T00:18:20.671Z,101448.84
2023-05-05T00:20:47.653Z,101444.13
2023-05-05T00:23:15.989Z,101435.16
2023-05-05T00:25:42.662Z,101436.50
2023-05-05T00:28:09.113Z,101427.47
2023-05-05T00:30:37.288Z,101425.69
2023-05-05T00:33:04.093Z,101433.38
2023-05-05T00:35:30.797Z,101415.81
2023-05-05T00:37:57.256Z,101412.91
2023-05-05T00:40:25.115Z,101422.38
2023-05-05T00:42:51.614Z,101431.25
2023-05-05T00:45:19.460Z,101445.19
2023-05-05T00:47:52.037Z,101449.38
2023-05-05T00:50:26.332Z,101450.41
2023-05-05T00:52:55.311Z,101451.44
2023-05-05T00:55:22.147Z,101446.28
2023-05-05T00:57:49.681Z,101448.13
2023-05-05T01:00:16.726Z,101447.22
2023-05-05T01:02:44.677Z,101442.81
2023-05-05T01:05:13.273Z,101435.25
2023-05-05T01:08:10.679Z,101435.31
2023-05-05T01:10:52.368Z,101435.75
2023-05-05T01:13:32.504Z,101430.00
2023-05-05T01:16:14.712Z,101430.47
2023-05-05T01:18:54.070Z,101437.97
2023-05-05T01:21:33.687Z,101445.22
2023-05-05T01:24:14.032Z,101453.31
2023-05-05T01:27:11.698Z,101443.94
2023-05-05T01:30:29.595Z,101453.63
2023-05-05T01:33:11.347Z,101451.78
2023-05-05T01:35:41.933Z,101466.25
2023-05-05T01:38:14.803Z,101462.28
2023-05-05T01:40:48.002Z,101458.03
2023-05-05T01:43:17.659Z,101461.09
2023-05-05T01:45:45.711Z,101450.59
2023-05-05T01:48:15.322Z,101462.59
2023-05-05T01:50:42.821Z,101467.56
2023-05-05T01:53:09.965Z,101471.63
2023-05-05T01:55:39.263Z,101471.63
2023-05-05T01:58:07.661Z,101483.28
2023-05-05T02:00:34.781Z,101485.22
2023-05-05T02:03:04.457Z,101489.09
2023-05-05T02:05:33.693Z,101489.59
2023-05-05T02:08:00.470Z,101484.63
2023-05-05T02:10:28.313Z,101460.25
2023-05-05T02:12:55.634Z,101434.53
2023-05-05T02:15:24.622Z,101437.91
2023-05-05T02:17:54.508Z,101422.16
2023-05-05T02:20:22.475Z,101423.97
2023-05-05T02:22:49.105Z,101440.16
2023-05-05T02:25:17.668Z,101451.47
2023-05-05T02:27:48.377Z,101460.19
2023-05-05T02:30:18.009Z,101455.88
2023-05-05T02:32:53.674Z,101446.31
2023-05-05T02:35:24.303Z,101448.19
2023-05-05T02:37:59.696Z,101452.59
2023-05-05T02:40:29.910Z,101455.66
2023-05-05T02:42:58.784Z,101456.13
2023-05-05T02:45:27.463Z,101458.16
2023-05-05T02:47:53.984Z,101452.56
2023-05-05T02:50:20.927Z,101450.84
2023-05-05T02:52:48.205Z,101448.50
2023-05-05T02:55:15.575Z,101449.69
2023-05-05T02:58:03.850Z,101454.28
2023-05-05T03:00:30.191Z,101447.19
2023-05-05T03:03:13.841Z,101445.09
2023-05-05T03:06:14.928Z,101458.88
2023-05-05T03:08:52.656Z,101456.78
2023-05-05T03:11:27.576Z,101458.03
2023-05-05T03:14:19.277Z,101461.09
2023-05-05T03:16:46.925Z,101467.25
2023-05-05T03:19:15.738Z,101471.22
2023-05-05T03:21:43.164Z,101465.56
2023-05-05T03:24:20.304Z,101474.25
2023-05-05T03:26:48.263Z,101481.47
2023-05-05T03:29:15.154Z,101482.34
2023-05-05T03:31:42.301Z,101489.50
2023-05-05T03:34:08.777Z,101504.19
2023-05-05T03:36:35.914Z,101489.16
2023-05-05T03:39:02.566Z,101481.91
2023-05-05T03:41:29.021Z,101468.84
2023-05-05T03:43:55.418Z,101465.31
2023-05-05T03:48:48.656Z,101481.84
2023-05-05T03:51:15.634Z,101488.00
2023-05-05T03:53:42.120Z,101491.47
2023-05-05T03:56:08.806Z,101502.19
2023-05-05T03:58:35.276Z,101515.34
2023-05-05T04:01:01.813Z,101511.94
2023-05-05T04:03:28.343Z,101510.25
2023-05-05T04:05:54.864Z,101510.34
2023-05-05T04:08:21.591Z,101526.09
2023-05-05T04:10:48.048Z,101535.72
2023-05-05T04:13:14.623Z,101537.59
2023-05-05T04:15:45.863Z,101536.56
2023-05-05T04:18:12.765Z,101542.06
2023-05-05T04:20:39.301Z,101541.22
2023-05-05T04:23:05.712Z,101549.81
2023-05-05T04:25:32.616Z,101549.25
2023-05-05T04:27:59.108Z,101547.59
2023-05-05T04:30:25.576Z,101547.59
2023-05-05T04:32:52.300Z,101553.84
2023-05-05T04:35:18.838Z,101569.66
2023-05-05T04:37:45.310Z,101565.38
2023-05-05T04:40:12.077Z,101579.22
2023-05-05T04:42:38.767Z,101564.59
2023-05-05T04:45:05.527Z,101565.50
2023-05-05T04:47:31.976Z,101570.59
2023-05-05T04:49:58.761Z,101570.75
2023-05-05T04:52:25.247Z,101573.22
2023-05-05T04:54:51.730Z,101576.59
2023-05-05T04:57:18.337Z,101578.28
2023-05-05T04:59:44.762Z,101575.59
2023-05-05T05:02:11.214Z,101585.75
2023-05-05T05:04:37.666Z,101583.72
2023-05-05T05:07:04.080Z,101583.41
2023-05-05T05:09:30.531Z,101585.78
2023-05-05T05:12:01.080Z,101589.94
2023-05-05T05:14:28.175Z,101594.09
2023-05-05T05:16:54.877Z,101591.91
2023-05-05T05:19:21.661Z,101593.28
2023-05-05T05:21:48.057Z,101586.94
2023-05-05T05:24:14.534Z,101594.41
2023-05-05T05:26:41.063Z,101592.47
2023-05-05T05:29:07.464Z,101593.13
2023-05-05T05:31:34.768Z,101600.59
2023-05-05T05:34:01.339Z,101604.56
2023-05-05T05:36:27.843Z,101602.69
2023-05-05T05:38:54.286Z,101605.09
2023-05-05T05:41:21.654Z,101599.59
2023-05-05T05:43:48.102Z,101609.56
2023-05-05T05:46:14.595Z,101616.28
2023-05-05T05:48:41.116Z,101616.03
2023-05-05T05:51:07.509Z,101621.00
2023-05-05T05:53:34.060Z,101615.50
2023-05-05T05:56:01.477Z,101619.50
2023-05-05T05:58:27.956Z,101620.25
2023-05-05T06:00:54.588Z,101619.88
2023-05-05T06:03:21.142Z,101607.97
2023-05-05T06:05:47.767Z,101607.19
2023-05-05T06:08:14.260Z,101608.25
2023-05-05T06:10:41.101Z,101606.97
2023-05-05T06:13:07.721Z,101607.19
2023-05-05T06:15:34.265Z,101601.97
2023-05-05T06:18:00.851Z,101598.47
2023-05-05T06:20:27.574Z,101602.38
2023-05-05T06:22:53.985Z,101596.13
2023-05-05T06:25:20.444Z,101602.50
2023-05-05T06:27:46.905Z,101609.16
2023-05-05T06:30:14.718Z,101608.88
2023-05-05T06:32:41.257Z,101618.91
2023-05-05T06:35:08.221Z,101618.16
2023-05-05T06:37:34.819Z,101620.22
2023-05-05T06:40:01.435Z,101620.13
2023-05-05T06:42:27.939Z,101617.78
2023-05-05T06:44:54.360Z,101621.34
2023-05-05T06:47:20.944Z,101624.41
2023-05-05T06:49:47.327Z,101636.34
2023-05-05T06:52:13.700Z,101626.66
2023-05-05T06:54:40.121Z,101627.16
2023-05-05T06:57:06.508Z,101634.78
2023-05-05T06:59:32.975Z,101629.06
2023-05-05T07:01:59.553Z,101630.84
2023-05-05T07:04:26.807Z,101638.44
2023-05-05T07:06:55.101Z,101640.09
2023-05-05T07:09:21.553Z,101644.53
2023-05-05T07:11:48.232Z,101647.28
2023-05-05T07:14:14.742Z,101643.13
2023-05-05T07:16:41.430Z,101652.72
2023-05-05T07:19:08.010Z,101642.72
2023-05-05T07:21:35.017Z,101642.38
2023-05-05T07:24:03.043Z,101637.22
2023-05-05T07:26:29.566Z,101641.81
2023-05-05T07:28:57.276Z,101652.31
2023-05-05T07:31:23.758Z,101643.16
2023-05-05T07:33:50.260Z,101644.72
2023-05-05T07:36:18.457Z,101652.66
2023-05-05T07:38:44.951Z,101651.66
2023-05-05T07:41:12.908Z,101651.25
2023-05-05T07:43:44.409Z,101648.50
2023-05-05T07:46:11.581Z,101651.34
2023-05-05T07:48:41.624Z,101647.78
2023-05-05T07:51:08.855Z,101651.28
2023-05-05T07:53:35.344Z,101654.94
2023-05-05T07:56:01.964Z,101646.50
2023-05-05T07:58:28.411Z,101654.50
2023-05-05T08:00:54.875Z,101647.28
2023-05-05T08:03:24.492Z,101652.66
2023-05-05T08:05:53.970Z,101652.22
2023-05-05T08:08:24.301Z,101651.59
2023-05-05T08:10:51.943Z,101648.22
2023-05-05T08:13:18.512Z,101666.41
2023-05-05T08:15:45.440Z,101661.06
2023-05-05T08:18:11.932Z,101657.31
2023-05-05T08:20:38.604Z,101662.81
2023-05-05T08:23:05.188Z,101660.47
2023-05-05T08:25:31.612Z,101661.91
2023-05-05T08:27:58.013Z,101652.22
2023-05-05T08:30:24.535Z,101653.16
2023-05-05T08:32:51.090Z,101649.31
2023-05-05T08:35:17.778Z,101653.31
2023-05-05T08:37:44.258Z,101655.78
2023-05-05T08:40:14.701Z,101658.38
2023-05-05T08:42:42.125Z,101660.22
2023-05-05T08:45:11.495Z,101674.59
2023-05-05T08:47:39.277Z,101668.06
2023-05-05T08:50:07.038Z,101672.16
2023-05-05T08:52:40.389Z,101667.78
2023-05-05T08:55:26.692Z,101673.50
2023-05-05T08:57:56.857Z,101680.66
2023-05-05T09:00:24.613Z,101682.47
2023-05-05T09:02:51.681Z,101678.75
2023-05-05T09:05:18.427Z,101673.91
2023-05-05T09:07:46.760Z,101671.91
2023-05-05T09:10:13.384Z,101676.75
2023-05-05T09:12:42.921Z,101670.88
2023-05-05T09:15:14.095Z,101669.81
2023-05-05T09:17:41.605Z,101669.81
2023-05-05T09:20:12.433Z,101668.84
2023-05-05T09:22:39.886Z,101668.84
2023-05-05T09:25:08.732Z,101665.19
2023-05-05T09:27:41.085Z,101675.06
2023-05-05T09:30:09.147Z,101668.56
2023-05-05T09:32:49.085Z,101679.81
2023-05-05T09:35:16.974Z,101675.09
2023-05-05T09:37:43.714Z,101674.13
2023-05-05T09:40:14.476Z,101675.81
2023-05-05T09:42:41.768Z,101672.69
2023-05-05T09:45:17.325Z,101663.16
2023-05-05T09:47:45.728Z,101671.72
2023-05-05T09:50:15.996Z,101672.16
2023-05-05T09:52:43.222Z,101669.09
2023-05-05T09:55:19.071Z,101664.13
2023-05-05T09:57:47.229Z,101666.34
2023-05-05T10:00:14.686Z,101668.84
2023-05-05T10:02:41.893Z,101663.16
2023-05-05T10:05:14.058Z,101659.19
2023-05-05T10:07:42.759Z,101659.94
2023-05-05T10:10:12.250Z,101662.88
2023-05-05T10:12:39.843Z,101660.03
2023-05-05T10:15:08.540Z,101678.69
2023-05-05T10:18:05.362Z,101696.81
2023-05-05T10:20:33.451Z,101713.56
2023-05-05T10:23:04.742Z,101717.72
2023-05-05T10:25:37.395Z,101693.25
2023-05-05T10:28:06.730Z,101703.75
2023-05-05T10:30:41.600Z,101720.06
2023-05-05T10:33:31.728Z,101712.69
2023-05-05T10:36:02.274Z,101701.38
2023-05-05T10:38:32.141Z,101692.44
2023-05-05T10:41:01.342Z,101692.00
2023-05-05T10:43:29.483Z,101690.41
2023-05-05T10:45:56.609Z,101692.09
2023-05-05T10:48:32.827Z,101708.59
2023-05-05T10:51:11.123Z,101710.78
2023-05-05T10:54:00.377Z,101705.59
2023-05-05T10:56:32.519Z,101712.13
2023-05-05T10:59:00.584Z,101712.19
2023-05-05T11:01:35.198Z,101731.22
2023-05-05T11:04:18.751Z,101738.53
2023-05-05T11:07:13.769Z,101739.66
2023-05-05T11:09:57.581Z,101741.03
2023-05-05T11:12:24.320Z,101745.94
2023-05-05T11:15:28.027Z,101739.19
2023-05-05T11:17:56.544Z,101740.59
2023-05-05T11:20:35.372Z,101739.53
2023-05-05T11:23:05.351Z,101734.28
2023-05-05T11:25:35.181Z,101721.78
2023-05-05T11:28:24.247Z,101719.63
2023-05-05T11:30:57.274Z,101730.34
2023-05-05T11:33:38.119Z,101744.50
2023-05-05T11:36:08.337Z,101760.38
2023-05-05T11:39:05.714Z,101757.69
2023-05-05T11:41:32.216Z,101759.00
2023-05-05T11:44:15.698Z,101757.75
2023-05-05T11:46:51.026Z,101748.16
2023-05-05T11:49:37.434Z,101756.97
2023-05-05T11:52:05.922Z,101751.84
2023-05-05T11:54:34.159Z,101747.00
2023-05-05T11:57:07.199Z,101746.53
2023-05-05T11:59:52.672Z,101752.91
2023-05-05T12:02:19.960Z,101748.06
2023-05-05T12:04:47.068Z,101742.91
2023-05-05T12:07:18.093Z,101740.94
2023-05-05T12:09:46.332Z,101739.09
2023-05-05T12:12:13.890Z,101733.59
2023-05-05T12:14:52.663Z,101736.00
2023-05-05T12:17:20.837Z,101732.66
2023-05-05T12:19:49.515Z,101740.28
2023-05-05T12:22:27.079Z,101738.44
2023-05-05T12:25:00.005Z,101742.69
2023-05-05T12:27:27.634Z,101742.59
2023-05-05T12:29:55.179Z,101734.66
2023-05-05T12:32:26.324Z,101735.50
2023-05-05T12:34:55.466Z,101734.91
2023-05-05T12:37:23.020Z,101741.81
2023-05-05T12:39:50.314Z,101743.44
2023-05-05T12:42:17.165Z,101737.97
2023-05-05T12:44:44.787Z,101734.50
2023-05-05T12:47:12.337Z,101735.06
2023-05-05T12:49:49.178Z,101733.88
2023-05-05T12:52:16.445Z,101726.72
2023-05-05T12:54:54.975Z,101734.19
2023-05-05T12:57:22.267Z,101734.31
2023-05-05T12:59:49.537Z,101728.25
2023-05-05T13:02:16.393Z,101728.31
2023-05-05T13:04:53.715Z,101730.16
2023-05-05T13:07:21.993Z,101722.50
2023-05-05T13:09:50.241Z,101724.09
2023-05-05T13:12:21.727Z,101725.69
2023-05-05T13:14:49.237Z,101731.38
2023-05-05T13:17:15.763Z,101733.31
2023-05-05T13:19:45.846Z,101739.03
2023-05-05T13:22:13.437Z,101731.25
2023-05-05T13:24:50.571Z,101732.34
2023-05-05T13:27:19.814Z,101735.13
2023-05-05T13:29:46.700Z,101741.97
2023-05-05T13:32:13.190Z,101737.56
2023-05-05T13:34:39.740Z,101743.81
2023-05-05T13:37:06.417Z,101750.66
2023-05-05T13:39:32.954Z,101748.81
2023-05-05T13:41:59.431Z,101750.59
2023-05-05T13:44:25.839Z,101753.22
2023-05-05T13:46:52.437Z,101754.16
2023-05-05T13:49:19.945Z,101747.38
2023-05-05T13:51:47.087Z,101764.06
2023-05-05T13:54:13.707Z,101749.91
2023-05-05T13:56:40.212Z,101747.50
2023-05-05T13:59:06.645Z,101745.31
2023-05-05T14:01:33.108Z,101754.13
2023-05-05T14:04:00.102Z,101743.84
2023-05-05T14:06:27.958Z,101742.91
2023-05-05T14:08:54.504Z,101739.50
2023-05-05T14:11:21.470Z,101737.84
2023-05-05T14:13:48.181Z,101741.34
2023-05-05T14:16:14.861Z,101730.06
2023-05-05T14:18:41.645Z,101730.59
2023-05-05T14:21:08.408Z,101715.81
2023-05-05T14:23:34.825Z,101718.44
2023-05-05T14:26:01.416Z,101710.41
2023-05-05T14:28:27.978Z,101703.84
2023-05-05T14:30:54.429Z,101707.25
2023-05-05T14:33:22.156Z,101700.56
2023-05-05T14:35:48.766Z,101699.88
2023-05-05T14:38:15.338Z,101690.25
2023-05-05T14:40:41.821Z,101674.47
2023-05-05T14:43:08.202Z,101675.63
2023-05-05T14:45:34.694Z,101672.22
2023-05-05T14:48:01.176Z,101658.38
2023-05-05T14:50:27.853Z,101651.41
2023-05-05T14:52:54.255Z,101652.75
2023-05-05T14:55:20.739Z,101677.47
2023-05-05T14:57:47.320Z,101684.66
2023-05-05T15:00:14.405Z,101697.50
2023-05-05T15:02:41.073Z,101699.16
2023-05-05T15:05:08.208Z,101697.50
2023-05-05T15:07:34.958Z,101688.94
2023-05-05T15:10:01.419Z,101697.03
2023-05-05T15:12:27.921Z,101699.88
2023-05-05T15:14:55.461Z,101691.09
2023-05-05T15:17:22.136Z,101700.97
2023-05-05T15:19:48.601Z,101692.50
2023-05-05T15:22:15.182Z,101687.97
2023-05-05T15:24:41.721Z,101683.56
2023-05-05T15:27:08.191Z,101678.94
2023-05-05T15:29:34.569Z,101681.22
2023-05-05T15:32:01.181Z,101684.28
2023-05-05T15:34:27.791Z,101683.81
2023-05-05T15:36:54.511Z,101675.69
2023-05-05T15:39:20.928Z,101672.13
2023-05-05T15:41:48.151Z,101657.19
2023-05-05T15:44:14.628Z,101668.59
2023-05-05T15:46:41.198Z,101658.34
2023-05-05T15:49:07.648Z,101657.03
2023-05-05T15:51:34.099Z,101658.97
2023-05-05T15:54:00.549Z,101667.25
2023-05-05T15:56:27.533Z,101661.06
2023-05-05T15:58:54.293Z,101656.84
2023-05-05T16:01:21.097Z,101656.00
2023-05-05T16:03:47.527Z,101660.31
2023-05-05T16:06:14.179Z,101658.09
2023-05-05T16:08:40.774Z,101659.88
2023-05-05T16:11:07.222Z,101657.25
2023-05-05T16:13:33.673Z,101656.25
2023-05-05T16:16:00.281Z,101653.97
2023-05-05T16:18:26.740Z,101656.66
2023-05-05T16:20:53.190Z,101652.94
2023-05-05T16:23:19.598Z,101656.50
2023-05-05T16:25:46.051Z,101654.66
2023-05-05T16:28:12.503Z,101644.91
2023-05-05T16:30:39.846Z,101639.22
2023-05-05T16:33:06.736Z,101643.00
2023-05-05T16:35:33.368Z,101631.97
2023-05-05T16:37:59.757Z,101635.13
2023-05-05T16:40:26.203Z,101626.91
2023-05-05T16:42:52.615Z,101638.94
2023-05-05T16:45:19.027Z,101637.34
2023-05-05T16:47:45.739Z,101633.94
2023-05-05T16:50:12.298Z,101634.53
2023-05-05T16:52:38.929Z,101635.84
2023-05-05T16:55:05.770Z,101636.59
2023-05-05T16:57:32.171Z,101635.47
2023-05-05T16:59:58.635Z,101637.09
2023-05-05T17:02:25.337Z,101640.22
2023-05-05T17:04:51.764Z,101643.22
2023-05-05T17:07:18.227Z,101643.16
2023-05-05T17:09:44.680Z,101646.25
2023-05-05T17:12:11.178Z,101641.28
2023-05-05T17:14:37.612Z,101640.38
2023-05-05T17:17:04.023Z,101638.22
2023-05-05T17:19:30.569Z,101644.56
2023-05-05T17:21:57.067Z,101634.75
2023-05-05T17:24:24.087Z,101637.00
2023-05-05T17:26:50.755Z,101642.44
2023-05-05T17:29:21.526Z,101650.66
2023-05-05T17:31:48.083Z,101646.25
2023-05-05T17:34:14.608Z,101648.16
2023-05-05T17:36:41.091Z,101642.34
2023-05-05T17:39:07.692Z,101646.38
2023-05-05T17:41:34.076Z,101636.63
2023-05-05T17:44:00.790Z,101641.78
2023-05-05T17:46:27.792Z,101641.69
2023-05-05T17:48:54.862Z,101648.81
2023-05-05T17:51:21.298Z,101649.94
2023-05-05T17:53:47.733Z,101646.91
2023-05-05T17:56:14.177Z,101648.03
2023-05-05T17:58:41.221Z,101661.16
2023-05-05T18:01:07.707Z,101658.97
2023-05-05T18:03:34.307Z,101659.41
2023-05-05T18:06:02.212Z,101658.66
2023-05-05T18:08:28.598Z,101654.34
2023-05-05T18:10:55.218Z,101662.88
2023-05-05T18:13:21.886Z,101664.94
2023-05-05T18:15:48.414Z,101666.88
2023-05-05T18:18:14.870Z,101659.44
2023-05-05T18:20:41.271Z,101662.25
2023-05-05T18:23:07.667Z,101653.06
2023-05-05T18:25:34.115Z,101656.69
2023-05-05T18:28:00.555Z,101652.81
2023-05-05T18:30:27.139Z,101656.53
2023-05-05T18:32:53.661Z,101660.38
2023-05-05T18:35:20.150Z,101664.94
2023-05-05T18:37:46.628Z,101673.22
2023-05-05T18:40:13.366Z,101666.97
2023-05-05T18:42:39.780Z,101673.84
2023-05-05T18:45:07.903Z,101673.72
2023-05-05T18:47:37.475Z,101678.84
2023-05-05T18:50:04.308Z,101674.41
2023-05-05T18:52:30.767Z,101681.81
2023-05-05T18:54:57.228Z,101674.41
2023-05-05T18:57:23.690Z,101676.38
2023-05-05T18:59:50.127Z,101676.03
2023-05-05T19:02:17.802Z,101672.97
2023-05-05T19:04:44.574Z,101677.81
2023-05-05T19:07:14.469Z,101676.56
2023-05-05T19:09:47.557Z,101674.59
2023-05-05T19:12:13.950Z,101675.66
2023-05-05T19:14:40.471Z,101682.97
2023-05-05T19:17:06.970Z,101684.19
2023-05-05T19:19:33.415Z,101685.53
2023-05-05T19:22:02.080Z,101687.75
2023-05-05T19:24:30.041Z,101684.63
2023-05-05T19:26:56.444Z,101692.00
2023-05-05T19:29:23.098Z,101690.59
2023-05-05T19:31:49.822Z,101693.50
2023-05-05T19:34:16.340Z,101699.28
2023-05-05T19:36:42.827Z,101701.38
2023-05-05T19:39:09.249Z,101698.16
2023-05-05T19:41:35.782Z,101705.50
2023-05-05T19:44:02.907Z,101706.59
2023-05-05T19:46:29.498Z,101709.31
2023-05-05T19:48:56.137Z,101701.47
2023-05-05T19:51:22.664Z,101703.31
2023-05-05T19:53:49.159Z,101706.97
2023-05-05T19:56:16.849Z,101707.13
2023-05-05T19:58:54.566Z,101706.09
2023-05-05T20:01:21.233Z,101712.03
2023-05-05T20:03:47.789Z,101710.34
2023-05-05T20:06:14.380Z,101720.06
2023-05-05T20:08:41.081Z,101712.44
2023-05-05T20:11:07.677Z,101721.31
2023-05-05T20:13:34.397Z,101720.75
2023-05-05T20:16:00.975Z,101718.41
2023-05-05T20:18:27.505Z,101720.22
2023-05-05T20:20:53.960Z,101712.47
2023-05-05T20:23:20.628Z,101716.84
2023-05-05T20:25:47.228Z,101717.81
2023-05-05T20:28:13.684Z,101719.81
2023-05-05T20:30:40.097Z,101719.97
2023-05-05T20:33:06.528Z,101725.25
2023-05-05T20:35:34.173Z,101723.69
2023-05-05T20:38:00.968Z,101730.66
2023-05-05T20:40:27.445Z,101729.34
2023-05-05T20:42:53.817Z,101729.75
2023-05-05T20:45:20.293Z,101726.75
2023-05-05T20:47:46.710Z,101723.50
2023-05-05T20:50:13.268Z,101721.97
2023-05-05T20:52:39.774Z,101725.44
2023-05-05T20:55:06.615Z,101722.88
2023-05-05T20:57:33.811Z,101713.63
2023-05-05T21:00:00.368Z,101706.81
2023-05-05T21:02:26.954Z,101707.56
2023-05-05T21:04:53.456Z,101712.59
2023-05-05T21:07:19.911Z,101714.47
2023-05-05T21:09:46.889Z,101706.63
2023-05-05T21:12:13.375Z,101717.06
2023-05-05T21:14:44.553Z,101711.84
2023-05-05T21:17:11.014Z,101715.56
2023-05-05T21:19:37.443Z,101715.81
2023-05-05T21:22:04.369Z,101710.78
2023-05-05T21:24:30.977Z,101718.84
2023-05-05T21:26:57.360Z,101710.28
2023-05-05T21:29:26.778Z,101710.47
2023-05-05T21:31:53.316Z,101714.16
2023-05-05T21:34:20.233Z,101702.84
2023-05-05T21:36:46.593Z,101713.97
2023-05-05T21:39:13.059Z,101713.03
2023-05-05T21:41:39.532Z,101715.56
2023-05-05T21:44:05.967Z,101716.72
2023-05-05T21:46:32.409Z,101709.13
2023-05-05T21:48:58.898Z,101712.63
2023-05-05T21:51:25.462Z,101708.38
2023-05-05T21:53:51.864Z,101716.16
2023-05-05T21:56:18.252Z,101702.38
2023-05-05T21:58:44.737Z,101710.34
2023-05-05T22:01:11.958Z,101712.25
2023-05-05T22:03:38.481Z,101712.38
2023-05-05T22:06:05.188Z,101703.78
2023-05-05T22:08:31.603Z,101700.34
2023-05-05T22:10:58.003Z,101699.53
2023-05-05T22:13:24.688Z,101699.53
2023-05-05T22:15:51.279Z,101702.31
2023-05-05T22:18:17.821Z,101708.59
2023-05-05T22:20:44.409Z,101704.34
2023-05-05T22:23:11.091Z,101712.13
2023-05-05T22:25:37.537Z,101710.28
2023-05-05T22:28:04.208Z,101713.69
2023-05-05T22:30:30.752Z,101716.06
2023-05-05T22:32:57.305Z,101702.72
2023-05-05T22:35:23.859Z,101701.00
2023-05-05T22:37:50.336Z,101699.53
2023-05-05T22:40:16.843Z,101705.81
2023-05-05T22:42:43.301Z,101706.84
2023-05-05T22:45:10.401Z,101713.13
2023-05-05T22:47:37.189Z,101708.81
2023-05-05T22:50:03.866Z,101706.22
2023-05-05T22:52:30.541Z,101705.34
2023-05-05T22:54:56.908Z,101702.66
2023-05-05T22:57:23.489Z,101700.91
2023-05-05T22:59:50.322Z,101703.44
2023-05-05T23:02:16.916Z,101698.94
2023-05-05T23:04:44.990Z,101696.16
2023-05-05T23:07:12.900Z,101692.53
2023-05-05T23:09:39.560Z,101690.56
2023-05-05T23:12:06.224Z,101693.78
2023-05-05T23:14:32.697Z,101696.28
2023-05-05T23:16:59.323Z,101693.69
2023-05-05T23:19:26.294Z,101691.25
2023-05-05T23:21:53.805Z,101693.88
2023-05-05T23:24:21.425Z,101697.38
2023-05-05T23:26:47.857Z,101693.19
2023-05-05T23:29:14.227Z,101686.34
2023-05-05T23:31:40.682Z,101691.59
2023-05-05T23:34:07.045Z,101684.75
2023-05-05T23:36:33.485Z,101692.56
2023-05-05T23:38:59.932Z,101686.56
2023-05-05T23:41:26.386Z,101690.00
2023-05-05T23:43:52.792Z,101686.38
2023-05-05T23:46:19.266Z,101683.72
2023-05-05T23:48:45.734Z,101689.69
2023-05-05T23:51:12.159Z,101686.09
2023-05-05T23:53:38.613Z,101687.75
2023-05-05T23:56:05.415Z,101683.44
2023-05-05T23:58:31.812Z,101680.94
